createdAt,value
2022-11-08T00:02:03.435Z,11.80
2022-11-08T00:04:30.029Z,11.82
2022-11-08T00:07:14.996Z,11.77
2022-11-08T00:10:00.030Z,11.75
2022-11-08T00:12:45.122Z,11.80
2022-11-08T00:15:11.660Z,11.84
2022-11-08T00:17:38.005Z,11.85
2022-11-08T00:20:05.386Z,11.83
2022-11-08T00:22:32.003Z,11.86
2022-11-08T00:24:58.811Z,11.90
2022-11-08T00:27:25.442Z,11.89
2022-11-08T00:29:51.783Z,11.91
2022-11-08T00:32:20.658Z,11.94
2022-11-08T00:34:48.549Z,11.96
2022-11-08T00:37:19.430Z,12.03
2022-11-08T00:39:46.046Z,12.02
2022-11-08T00:42:12.432Z,11.96
2022-11-08T00:44:38.781Z,11.96
2022-11-08T00:47:05.359Z,12.03
2022-11-08T00:49:32.015Z,12.05
2022-11-08T00:51:58.457Z,12.07
2022-11-08T00:54:24.836Z,12.13
2022-11-08T00:56:51.237Z,12.14
2022-11-08T00:59:19.635Z,12.17
2022-11-08T01:01:47.224Z,12.16
2022-11-08T01:04:17.803Z,12.13
2022-11-08T01:06:44.799Z,12.13
2022-11-08T01:09:11.302Z,12.25
2022-11-08T01:11:38.866Z,12.15
2022-11-08T01:14:05.289Z,12.12
2022-11-08T01:16:33.191Z,12.18
2022-11-08T01:19:00.274Z,12.12
2022-11-08T01:21:27.030Z,12.09
2022-11-08T01:23:56.975Z,12.13
2022-11-08T01:26:25.773Z,12.11
2022-11-08T01:28:52.826Z,12.00
2022-11-08T01:31:21.962Z,11.87
2022-11-08T01:33:51.363Z,11.79
2022-11-08T01:36:21.607Z,11.74
2022-11-08T01:38:47.998Z,11.77
2022-11-08T01:41:15.738Z,11.72
2022-11-08T01:43:43.242Z,11.72
2022-11-08T01:46:09.556Z,11.68
2022-11-08T01:48:39.789Z,11.62
2022-11-08T01:51:08.258Z,11.62
2022-11-08T01:53:35.723Z,11.66
2022-11-08T01:56:02.797Z,11.74
2022-11-08T01:58:35.068Z,11.76
2022-11-08T02:01:02.263Z,11.76
2022-11-08T02:03:33.679Z,11.71
2022-11-08T02:06:01.549Z,11.77
2022-11-08T02:08:34.450Z,11.79
2022-11-08T02:11:01.778Z,11.73
2022-11-08T02:13:30.341Z,11.75
2022-11-08T02:15:57.227Z,11.76
2022-11-08T02:18:26.467Z,11.73
2022-11-08T02:21:00.713Z,11.71
2022-11-08T02:23:28.415Z,11.66
2022-11-08T02:25:55.038Z,11.55
2022-11-08T02:28:21.505Z,11.52
2022-11-08T02:30:47.945Z,11.53
2022-11-08T02:33:16.113Z,11.53
2022-11-08T02:35:44.521Z,11.44
2022-11-08T02:38:10.872Z,11.43
2022-11-08T02:40:55.332Z,11.40
2022-11-08T02:43:23.249Z,11.43
2022-11-08T02:45:50.301Z,11.50
2022-11-08T02:48:18.217Z,11.52
2022-11-08T02:50:44.998Z,11.57
2022-11-08T02:53:11.910Z,11.55
2022-11-08T02:55:38.700Z,11.51
2022-11-08T02:58:05.168Z,11.55
2022-11-08T03:00:32.364Z,11.57
2022-11-08T03:02:58.918Z,11.58
2022-11-08T03:05:27.030Z,11.60
2022-11-08T03:07:54.559Z,11.57
2022-11-08T03:10:22.210Z,11.58
2022-11-08T03:12:58.603Z,11.54
2022-11-08T03:15:25.758Z,11.62
2022-11-08T03:17:52.239Z,11.53
2022-11-08T03:20:18.905Z,11.57
2022-11-08T03:22:46.052Z,11.64
2022-11-08T03:25:12.623Z,11.62
2022-11-08T03:27:39.004Z,11.58
2022-11-08T03:30:06.912Z,11.52
2022-11-08T03:32:33.316Z,11.47
2022-11-08T03:35:00.778Z,11.45
2022-11-08T03:37:27.134Z,11.40
2022-11-08T03:39:53.418Z,11.37
2022-11-08T03:42:19.716Z,11.35
2022-11-08T03:44:46.444Z,11.36
2022-11-08T03:47:12.796Z,11.37
2022-11-08T03:49:39.066Z,11.31
2022-11-08T03:52:05.344Z,11.25
2022-11-08T03:54:31.671Z,11.24
2022-11-08T03:56:58.009Z,11.21
2022-11-08T03:59:24.293Z,11.16
2022-11-08T04:01:50.848Z,11.11
2022-11-08T04:04:17.281Z,11.06
2022-11-08T04:06:43.562Z,11.05
2022-11-08T04:09:10.936Z,11.09
2022-11-08T04:11:56.006Z,11.00
2022-11-08T04:14:41.272Z,10.88
2022-11-08T04:17:07.556Z,10.78
2022-11-08T04:19:52.486Z,10.80
2022-11-08T04:22:18.823Z,10.85
2022-11-08T04:24:45.159Z,10.82
2022-11-08T04:27:11.474Z,10.81
2022-11-08T04:29:37.784Z,10.73
2022-11-08T04:32:04.264Z,10.73
2022-11-08T04:34:30.554Z,10.62
2022-11-08T04:36:56.818Z,10.53
2022-11-08T04:39:23.103Z,10.45
2022-11-08T04:41:49.438Z,10.45
2022-11-08T04:44:18.218Z,10.41
2022-11-08T04:46:44.504Z,10.43
2022-11-08T04:49:10.853Z,10.46
2022-11-08T04:51:37.168Z,10.30
2022-11-08T04:54:04.942Z,10.17
2022-11-08T04:56:31.592Z,10.20
2022-11-08T04:59:00.188Z,10.16
2022-11-08T05:01:29.602Z,10.04
2022-11-08T05:03:56.635Z,10.01
2022-11-08T05:06:31.057Z,10.03
2022-11-08T05:08:58.914Z,10.01
2022-11-08T05:11:27.568Z,9.95
2022-11-08T05:13:54.247Z,9.94
2022-11-08T05:16:23.625Z,9.87
2022-11-08T05:18:50.711Z,9.92
2022-11-08T05:21:37.722Z,9.90
2022-11-08T05:24:06.127Z,9.90
2022-11-08T05:26:37.496Z,9.91
2022-11-08T05:29:04.629Z,9.83
2022-11-08T05:31:31.837Z,9.84
2022-11-08T05:33:59.959Z,9.80
2022-11-08T05:36:27.177Z,9.72
2022-11-08T05:38:54.073Z,9.72
2022-11-08T05:41:22.911Z,9.64
2022-11-08T05:43:50.881Z,9.65
2022-11-08T05:46:18.988Z,9.69
2022-11-08T05:48:46.800Z,9.64
2022-11-08T05:51:14.940Z,9.65
2022-11-08T05:53:41.457Z,9.58
2022-11-08T05:56:08.758Z,9.57
2022-11-08T05:58:35.765Z,9.54
2022-11-08T06:01:05.167Z,9.53
2022-11-08T06:03:32.358Z,9.53
2022-11-08T06:06:14.043Z,9.49
2022-11-08T06:08:42.496Z,9.45
2022-11-08T06:11:14.128Z,9.46
2022-11-08T06:13:41.012Z,9.37
2022-11-08T06:16:10.346Z,9.42
2022-11-08T06:18:38.065Z,9.38
2022-11-08T06:21:06.562Z,9.39
2022-11-08T06:23:33.532Z,9.36
2022-11-08T06:26:00.709Z,9.34
2022-11-08T06:28:27.116Z,9.27
2022-11-08T06:30:53.742Z,9.33
2022-11-08T06:33:20.894Z,9.31
2022-11-08T06:35:47.653Z,9.29
2022-11-08T06:38:13.972Z,9.28
2022-11-08T06:40:40.636Z,9.27
2022-11-08T06:43:07.148Z,9.27
2022-11-08T06:45:33.456Z,9.26
2022-11-08T06:48:01.554Z,9.38
2022-11-08T06:50:29.842Z,9.35
2022-11-08T06:53:05.650Z,9.33
2022-11-08T06:55:32.728Z,9.27
2022-11-08T06:57:59.418Z,9.36
2022-11-08T07:00:26.895Z,9.38
2022-11-08T07:02:54.487Z,9.33
2022-11-08T07:05:21.339Z,9.36
2022-11-08T07:07:51.953Z,9.30
2022-11-08T07:10:23.139Z,9.41
2022-11-08T07:12:58.908Z,9.39
2022-11-08T07:15:25.226Z,9.40
2022-11-08T07:17:51.550Z,9.48
2022-11-08T07:20:18.065Z,9.56
2022-11-08T07:22:44.354Z,9.53
2022-11-08T07:25:10.649Z,9.50
2022-11-08T07:27:36.970Z,9.47
2022-11-08T07:30:03.679Z,9.51
2022-11-08T07:32:29.992Z,9.49
2022-11-08T07:34:56.291Z,9.57
2022-11-08T07:37:22.641Z,9.57
2022-11-08T07:39:48.924Z,9.55
2022-11-08T07:42:15.198Z,9.55
2022-11-08T07:44:41.534Z,9.63
2022-11-08T07:47:07.817Z,9.73
2022-11-08T07:49:35.844Z,9.80
2022-11-08T07:52:02.394Z,9.93
2022-11-08T07:54:28.730Z,10.02
2022-11-08T07:56:55.119Z,10.06
2022-11-08T07:59:21.454Z,10.13
2022-11-08T08:01:47.818Z,10.20
2022-11-08T08:04:14.246Z,10.23
2022-11-08T08:06:40.652Z,10.25
2022-11-08T08:09:06.980Z,10.35
2022-11-08T08:11:34.003Z,10.44
2022-11-08T08:14:00.621Z,10.43
2022-11-08T08:16:26.969Z,10.47
2022-11-08T08:18:56.295Z,10.46
2022-11-08T08:21:23.443Z,10.44
2022-11-08T08:23:49.740Z,10.54
2022-11-08T08:26:16.050Z,10.60
2022-11-08T08:28:42.341Z,10.65
2022-11-08T08:31:08.678Z,10.67
2022-11-08T08:33:35.067Z,10.69
2022-11-08T08:36:01.778Z,10.66
2022-11-08T08:38:28.725Z,10.80
2022-11-08T08:40:55.095Z,10.89
2022-11-08T08:43:21.884Z,10.92
2022-11-08T08:45:48.902Z,10.94
2022-11-08T08:48:15.621Z,10.95
2022-11-08T08:50:42.077Z,10.98
2022-11-08T08:53:08.481Z,11.02
2022-11-08T08:55:37.651Z,11.00
2022-11-08T08:58:04.571Z,11.08
2022-11-08T09:03:17.811Z,11.09
2022-11-08T09:05:46.481Z,11.21
2022-11-08T09:08:14.379Z,11.29
2022-11-08T09:10:41.183Z,11.31
2022-11-08T09:13:07.557Z,11.33
2022-11-08T09:15:33.875Z,11.44
2022-11-08T09:18:00.361Z,11.51
2022-11-08T09:20:26.966Z,11.61
2022-11-08T09:22:53.280Z,11.68
2022-11-08T09:25:19.685Z,11.66
2022-11-08T09:27:45.957Z,11.76
2022-11-08T09:30:12.444Z,11.83
2022-11-08T09:32:59.849Z,11.83
2022-11-08T09:35:25.019Z,11.87
2022-11-08T09:37:54.577Z,12.00
2022-11-08T09:40:46.554Z,12.08
2022-11-08T09:43:34.681Z,12.05
2022-11-08T09:46:01.132Z,12.05
2022-11-08T09:48:34.214Z,12.07
2022-11-08T09:51:16.820Z,12.02
2022-11-08T09:53:52.157Z,12.10
2022-11-08T09:56:21.524Z,12.09
2022-11-08T09:58:54.205Z,12.19
2022-11-08T10:01:26.699Z,12.26
2022-11-08T10:03:57.776Z,12.38
2022-11-08T10:07:01.064Z,12.43
2022-11-08T10:09:54.535Z,12.42
2022-11-08T10:12:33.037Z,12.45
2022-11-08T10:15:19.184Z,12.45
2022-11-08T10:18:27.122Z,12.48
2022-11-08T10:21:05.701Z,12.60
2022-11-08T10:23:36.677Z,12.58
2022-11-08T10:26:11.979Z,12.52
2022-11-08T10:28:50.152Z,12.52
2022-11-08T10:31:19.363Z,12.54
2022-11-08T10:33:51.880Z,12.66
2022-11-08T10:36:24.097Z,12.66
2022-11-08T10:39:00.809Z,12.72
2022-11-08T10:41:39.638Z,12.81
2022-11-08T10:44:19.745Z,12.70
2022-11-08T10:46:50.154Z,12.75
2022-11-08T10:49:27.131Z,12.81
2022-11-08T10:51:56.690Z,13.01
2022-11-08T10:54:47.918Z,13.15
2022-11-08T10:57:31.448Z,12.97
2022-11-08T11:00:33.168Z,12.91
2022-11-08T11:03:28.600Z,12.92
2022-11-08T11:06:04.579Z,12.98
2022-11-08T11:08:32.182Z,12.93
2022-11-08T11:11:37.718Z,12.89
2022-11-08T11:14:13.066Z,12.90
2022-11-08T11:16:55.206Z,13.06
2022-11-08T11:19:22.598Z,13.07
2022-11-08T11:21:55.490Z,13.02
2022-11-08T11:24:22.212Z,13.08
2022-11-08T11:27:18.684Z,13.09
2022-11-08T11:29:44.981Z,13.09
2022-11-08T11:32:33.558Z,13.12
2022-11-08T11:35:03.127Z,13.17
2022-11-08T11:37:35.611Z,13.23
2022-11-08T11:40:03.973Z,13.26
2022-11-08T11:43:01.152Z,13.15
2022-11-08T11:45:38.538Z,13.18
2022-11-08T11:48:14.756Z,13.22
2022-11-08T11:50:45.613Z,13.23
2022-11-08T11:53:22.603Z,13.23
2022-11-08T11:56:06.588Z,13.32
2022-11-08T11:58:58.145Z,13.40
2022-11-08T12:01:48.071Z,13.43
2022-11-08T12:04:45.087Z,13.47
2022-11-08T12:07:21.771Z,13.50
2022-11-08T12:10:13.420Z,13.38
2022-11-08T12:13:00.398Z,13.41
2022-11-08T12:15:29.351Z,13.36
2022-11-08T12:18:01.446Z,13.43
2022-11-08T12:20:36.970Z,13.56
2022-11-08T12:23:22.011Z,13.57
2022-11-08T12:25:53.785Z,13.64
2022-11-08T12:28:52.489Z,13.74
2022-11-08T12:31:40.925Z,13.82
2022-11-08T12:34:20.394Z,13.79
2022-11-08T12:37:14.660Z,13.85
2022-11-08T12:39:46.750Z,13.81
2022-11-08T12:42:34.494Z,13.82
2022-11-08T12:45:31.896Z,13.86
2022-11-08T12:48:32.064Z,13.76
2022-11-08T12:51:10.570Z,13.76
2022-11-08T12:53:48.645Z,13.82
2022-11-08T12:56:42.798Z,13.78
2022-11-08T12:59:21.026Z,13.77
2022-11-08T13:01:48.960Z,13.82
2022-11-08T13:04:38.436Z,13.88
2022-11-08T13:07:30.246Z,13.93
2022-11-08T13:10:00.546Z,13.91
2022-11-08T13:12:48.604Z,13.92
2022-11-08T13:15:21.814Z,13.79
2022-11-08T13:18:06.270Z,13.79
2022-11-08T13:20:38.570Z,13.88
2022-11-08T13:23:13.225Z,13.85
2022-11-08T13:25:41.314Z,13.87
2022-11-08T13:28:35.438Z,13.77
2022-11-08T13:31:11.049Z,13.80
2022-11-08T13:33:42.328Z,13.86
2022-11-08T13:36:16.414Z,13.84
2022-11-08T13:39:25.148Z,13.86
2022-11-08T13:42:05.313Z,13.84
2022-11-08T13:44:57.141Z,13.84
2022-11-08T13:47:32.730Z,13.87
2022-11-08T13:50:33.660Z,13.91
2022-11-08T13:53:18.689Z,13.95
2022-11-08T13:55:57.083Z,13.98
2022-11-08T13:58:32.621Z,13.97
2022-11-08T14:01:01.225Z,13.94
2022-11-08T14:03:33.578Z,13.89
2022-11-08T14:06:08.120Z,13.80
2022-11-08T14:09:14.555Z,13.75
2022-11-08T14:12:04.244Z,13.72
2022-11-08T14:14:33.881Z,13.65
2022-11-08T14:17:18.304Z,13.70
2022-11-08T14:19:46.283Z,13.63
2022-11-08T14:22:25.702Z,13.62
2022-11-08T14:24:58.169Z,13.64
2022-11-08T14:27:36.972Z,13.62
2022-11-08T14:30:06.407Z,13.67
2022-11-08T14:32:32.791Z,13.65
2022-11-08T14:35:12.147Z,13.70
2022-11-08T14:37:41.018Z,13.59
2022-11-08T14:40:15.858Z,13.63
2022-11-08T14:42:44.502Z,13.53
2022-11-08T14:45:15.580Z,13.47
2022-11-08T14:47:43.470Z,13.45
2022-11-08T14:50:18.892Z,13.45
2022-11-08T14:52:45.549Z,13.39
2022-11-08T14:55:14.230Z,13.39
2022-11-08T14:57:45.745Z,13.42
2022-11-08T15:00:15.804Z,13.43
2022-11-08T15:02:47.793Z,13.35
2022-11-08T15:05:32.449Z,13.38
2022-11-08T15:08:01.902Z,13.37
2022-11-08T15:10:29.092Z,13.41
2022-11-08T15:12:56.223Z,13.41
2022-11-08T15:15:28.043Z,13.43
2022-11-08T15:18:15.736Z,13.39
2022-11-08T15:21:16.402Z,13.35
2022-11-08T15:23:47.831Z,13.29
2022-11-08T15:26:21.542Z,13.23
2022-11-08T15:29:17.248Z,13.22
2022-11-08T15:31:55.565Z,13.14
2022-11-08T15:34:37.762Z,13.16
2022-11-08T15:37:27.921Z,13.09
2022-11-08T15:39:54.727Z,13.13
2022-11-08T15:42:21.989Z,13.10
2022-11-08T15:45:04.760Z,13.13
2022-11-08T15:47:35.578Z,13.18
2022-11-08T15:50:02.090Z,13.13
2022-11-08T15:52:28.354Z,13.13
2022-11-08T15:54:54.623Z,13.16
2022-11-08T15:57:21.695Z,13.07
2022-11-08T15:59:48.171Z,13.08
2022-11-08T16:02:14.848Z,13.13
2022-11-08T16:04:41.174Z,13.08
2022-11-08T16:07:07.714Z,13.15
2022-11-08T16:09:34.044Z,13.13
2022-11-08T16:12:02.750Z,13.10
2022-11-08T16:14:29.185Z,13.05
2022-11-08T16:16:55.719Z,13.04
2022-11-08T16:19:24.692Z,13.07
2022-11-08T16:21:52.378Z,13.01
2022-11-08T16:24:18.922Z,13.03
2022-11-08T16:26:46.714Z,13.11
2022-11-08T16:29:23.985Z,13.01
2022-11-08T16:31:51.418Z,13.00
2022-11-08T16:34:18.335Z,12.97
2022-11-08T16:36:46.539Z,12.96
2022-11-08T16:39:22.612Z,12.88
2022-11-08T16:41:49.074Z,12.89
2022-11-08T16:44:15.541Z,12.85
2022-11-08T16:46:42.088Z,12.77
2022-11-08T16:49:21.259Z,12.77
2022-11-08T16:51:48.374Z,12.83
2022-11-08T16:54:20.987Z,12.76
2022-11-08T16:56:47.305Z,12.80
2022-11-08T16:59:14.858Z,12.73
2022-11-08T17:01:42.375Z,12.76
2022-11-08T17:04:08.728Z,12.75
2022-11-08T17:06:35.100Z,12.77
2022-11-08T17:09:01.437Z,12.71
2022-11-08T17:11:27.768Z,12.68
2022-11-08T17:13:55.163Z,12.72
2022-11-08T17:16:21.535Z,12.68
2022-11-08T17:18:52.399Z,12.70
2022-11-08T17:24:06.151Z,12.79
2022-11-08T17:26:32.594Z,12.80
2022-11-08T17:28:58.880Z,12.84
2022-11-08T17:31:25.169Z,12.81
2022-11-08T17:33:51.488Z,12.82
2022-11-08T17:36:17.814Z,12.81
2022-11-08T17:38:44.537Z,12.76
2022-11-08T17:41:13.257Z,12.75
2022-11-08T17:43:40.447Z,12.84
2022-11-08T17:46:07.679Z,12.81
2022-11-08T17:48:34.605Z,12.82
2022-11-08T17:51:00.983Z,12.74
2022-11-08T17:53:27.574Z,12.81
2022-11-08T17:55:56.493Z,12.77
2022-11-08T17:58:23.989Z,12.68
2022-11-08T18:00:55.447Z,12.75
2022-11-08T18:03:22.677Z,12.84
2022-11-08T18:05:59.560Z,12.84
2022-11-08T18:08:27.428Z,12.80
2022-11-08T18:10:54.624Z,12.80
2022-11-08T18:13:21.719Z,12.84
2022-11-08T18:15:49.628Z,12.78
2022-11-08T18:18:16.987Z,12.77
2022-11-08T18:20:43.309Z,12.76
2022-11-08T18:23:12.758Z,12.81
2022-11-08T18:25:39.110Z,12.78
2022-11-08T18:28:05.878Z,12.77
2022-11-08T18:30:32.931Z,12.73
2022-11-08T18:32:59.252Z,12.80
2022-11-08T18:35:27.813Z,12.77
2022-11-08T18:37:55.231Z,12.76
2022-11-08T18:40:21.973Z,12.77
2022-11-08T18:42:48.875Z,12.70
2022-11-08T18:45:15.248Z,12.71
2022-11-08T18:47:41.649Z,12.68
2022-11-08T18:50:09.425Z,12.62
2022-11-08T18:52:36.776Z,12.62
2022-11-08T18:55:04.801Z,12.57
2022-11-08T18:57:31.081Z,12.60
2022-11-08T19:00:01.078Z,12.71
2022-11-08T19:02:27.647Z,12.78
2022-11-08T19:04:53.934Z,12.75
2022-11-08T19:07:20.397Z,12.74
2022-11-08T19:09:47.310Z,12.63
2022-11-08T19:12:13.626Z,12.63
2022-11-08T19:14:39.908Z,12.65
2022-11-08T19:17:06.258Z,12.54
2022-11-08T19:19:32.578Z,12.55
2022-11-08T19:21:59.006Z,12.71
2022-11-08T19:24:25.363Z,12.59
2022-11-08T19:26:51.806Z,12.57
2022-11-08T19:29:18.206Z,12.62
2022-11-08T19:31:45.331Z,12.55
2022-11-08T19:34:12.182Z,12.57
2022-11-08T19:36:43.192Z,12.67
2022-11-08T19:39:11.621Z,12.73
2022-11-08T19:41:39.048Z,12.76
2022-11-08T19:44:06.766Z,12.76
2022-11-08T19:46:33.905Z,12.81
2022-11-08T19:49:02.522Z,12.84
2022-11-08T19:51:31.599Z,12.81
2022-11-08T19:54:04.931Z,12.84
2022-11-08T19:59:18.895Z,12.92
2022-11-08T20:01:46.271Z,12.90
2022-11-08T20:04:14.298Z,12.89
2022-11-08T20:06:41.618Z,12.87
2022-11-08T20:09:09.170Z,12.90
2022-11-08T20:11:37.534Z,12.91
2022-11-08T20:14:04.871Z,12.93
2022-11-08T20:16:37.886Z,12.95
2022-11-08T20:19:07.572Z,12.89
2022-11-08T20:21:34.366Z,12.88
2022-11-08T20:24:00.987Z,12.78
2022-11-08T20:26:27.577Z,12.80
2022-11-08T20:28:56.642Z,12.84
2022-11-08T20:31:24.283Z,12.84
2022-11-08T20:33:53.141Z,12.82
2022-11-08T20:36:24.143Z,12.81
2022-11-08T20:38:55.885Z,12.77
2022-11-08T20:41:22.548Z,12.72
2022-11-08T20:43:48.878Z,12.75
2022-11-08T20:46:18.048Z,12.73
2022-11-08T20:48:45.154Z,12.71
2022-11-08T20:51:13.452Z,12.72
2022-11-08T20:53:40.071Z,12.70
2022-11-08T20:56:12.250Z,12.69
2022-11-08T20:58:38.752Z,12.65
2022-11-08T21:01:07.251Z,12.63
2022-11-08T21:03:34.612Z,12.67
2022-11-08T21:06:05.942Z,12.68
2022-11-08T21:11:20.464Z,12.66
2022-11-08T21:13:47.605Z,12.64
2022-11-08T21:16:29.387Z,12.53
2022-11-08T21:18:57.376Z,12.55
2022-11-08T21:21:24.159Z,12.46
2022-11-08T21:23:51.036Z,12.41
2022-11-08T21:26:19.026Z,12.48
2022-11-08T21:28:45.932Z,12.49
2022-11-08T21:31:12.570Z,12.41
2022-11-08T21:33:39.198Z,12.41
2022-11-08T21:36:06.031Z,12.43
2022-11-08T21:38:35.607Z,12.39
2022-11-08T21:41:07.134Z,12.41
2022-11-08T21:43:45.151Z,12.46
2022-11-08T21:46:32.143Z,12.45
2022-11-08T21:49:01.500Z,12.46
2022-11-08T21:51:29.484Z,12.47
2022-11-08T21:53:57.674Z,12.39
2022-11-08T21:56:26.015Z,12.44
2022-11-08T21:58:52.685Z,12.54
2022-11-08T22:01:19.727Z,12.46
2022-11-08T22:03:46.637Z,12.44
2022-11-08T22:06:13.081Z,12.34
2022-11-08T22:08:39.382Z,12.35
2022-11-08T22:11:06.080Z,12.37
2022-11-08T22:13:32.494Z,12.40
2022-11-08T22:15:58.835Z,12.33
2022-11-08T22:18:50.739Z,12.21
2022-11-08T22:21:30.058Z,12.29
2022-11-08T22:23:56.362Z,12.26
2022-11-08T22:26:22.666Z,12.22
2022-11-08T22:28:48.956Z,12.25
2022-11-08T22:31:15.377Z,12.19
2022-11-08T22:33:41.920Z,12.25
2022-11-08T22:36:08.579Z,12.22
2022-11-08T22:38:35.886Z,12.16
2022-11-08T22:41:02.187Z,12.15
2022-11-08T22:43:28.781Z,12.02
2022-11-08T22:45:55.076Z,12.04
2022-11-08T22:48:22.613Z,11.99
2022-11-08T22:50:48.899Z,11.92
2022-11-08T22:53:15.196Z,11.89
2022-11-08T22:55:41.606Z,11.88
2022-11-08T22:58:07.945Z,11.85
2022-11-08T23:00:34.230Z,11.80
2022-11-08T23:03:00.574Z,11.69
2022-11-08T23:05:26.879Z,11.67
2022-11-08T23:07:53.867Z,11.72
2022-11-08T23:10:20.440Z,11.67
2022-11-08T23:13:05.480Z,11.69
2022-11-08T23:15:52.909Z,11.52
2022-11-08T23:18:20.921Z,11.59
2022-11-08T23:21:05.565Z,11.58
2022-11-08T23:23:50.481Z,11.60
2022-11-08T23:26:38.130Z,11.63
2022-11-08T23:29:23.307Z,11.60
2022-11-08T23:31:49.603Z,11.69
2022-11-08T23:34:15.939Z,11.64
2022-11-08T23:36:42.217Z,11.61
2022-11-08T23:39:08.495Z,11.56
2022-11-08T23:41:53.234Z,11.49
2022-11-08T23:44:25.752Z,11.47
2022-11-08T23:46:56.509Z,11.54
2022-11-08T23:49:23.475Z,11.61
2022-11-08T23:51:49.959Z,11.56
2022-11-08T23:54:16.926Z,11.48
2022-11-08T23:56:43.935Z,11.53
2022-11-08T23:59:11.276Z,11.51
